createdAt,value
2018-02-08T00:00:58.838Z,27.00
2018-02-08T00:01:58.802Z,26.10
2018-02-08T00:02:58.760Z,27.00
2018-02-08T00:03:58.757Z,28.10
2018-02-08T00:04:58.701Z,28.10
2018-02-08T00:05:58.675Z,26.70
2018-02-08T00:06:58.637Z,26.50
2018-02-08T00:07:58.606Z,27.60
2018-02-08T00:08:58.616Z,28.20
2018-02-08T00:09:58.550Z,27.50
2018-02-08T00:10:58.509Z,26.20
2018-02-08T00:11:58.479Z,28.30
2018-02-08T00:12:58.445Z,26.40
2018-02-08T00:13:58.430Z,27.70
2018-02-08T00:14:58.394Z,27.90
2018-02-08T00:15:58.352Z,25.80
2018-02-08T00:16:58.325Z,27.90
2018-02-08T00:17:58.304Z,28.40
2018-02-08T00:18:58.270Z,28.70
2018-02-08T00:19:58.235Z,29.50
2018-02-08T00:20:58.207Z,29.60
2018-02-08T00:21:58.168Z,31.30
2018-02-08T00:22:58.197Z,30.30
2018-02-08T00:23:58.106Z,29.40
2018-02-08T00:24:58.076Z,30.40
2018-02-08T00:25:58.042Z,29.60
2018-02-08T00:26:58.009Z,29.40
2018-02-08T00:27:57.973Z,29.10
2018-02-08T00:28:57.963Z,29.50
2018-02-08T00:29:57.911Z,30.30
2018-02-08T00:30:57.882Z,28.00
2018-02-08T00:31:57.851Z,28.30
2018-02-08T00:32:57.814Z,28.70
2018-02-08T00:33:57.796Z,28.70
2018-02-08T00:34:57.768Z,28.90
2018-02-08T00:35:57.719Z,28.00
2018-02-08T00:36:57.727Z,30.10
2018-02-08T00:37:57.658Z,28.90
2018-02-08T00:38:57.626Z,28.90
2018-02-08T00:39:57.597Z,29.50
2018-02-08T00:40:57.561Z,30.90
2018-02-08T00:41:57.556Z,29.10
2018-02-08T00:42:57.510Z,30.20
2018-02-08T00:43:57.482Z,30.00
2018-02-08T00:44:57.753Z,29.30
2018-02-08T00:45:57.407Z,28.10
2018-02-08T00:46:57.394Z,30.60
2018-02-08T00:47:57.387Z,29.90
2018-02-08T00:48:57.315Z,31.20
2018-02-08T00:49:57.310Z,28.90
2018-02-08T00:50:57.247Z,29.00
2018-02-08T00:51:57.223Z,28.10
2018-02-08T00:52:57.204Z,28.50
2018-02-08T00:53:57.155Z,30.80
2018-02-08T00:54:57.154Z,29.10
2018-02-08T00:55:57.110Z,28.70
2018-02-08T00:56:57.057Z,31.10
2018-02-08T00:57:57.028Z,30.80
2018-02-08T00:58:56.994Z,28.80
2018-02-08T00:59:56.969Z,28.40
2018-02-08T01:00:56.958Z,28.30
2018-02-08T01:01:56.918Z,29.90
2018-02-08T01:02:56.897Z,28.30
2018-02-08T01:03:56.861Z,30.20
2018-02-08T01:04:56.813Z,31.30
2018-02-08T01:05:56.788Z,31.70
2018-02-08T01:06:56.750Z,27.80
2018-02-08T01:07:56.745Z,28.90
2018-02-08T01:08:56.685Z,29.90
2018-02-08T01:09:56.664Z,29.30
2018-02-08T01:10:56.622Z,31.20
2018-02-08T01:11:56.583Z,31.10
2018-02-08T01:12:56.634Z,30.90
2018-02-08T01:13:56.616Z,33.00
2018-02-08T01:14:56.502Z,29.20
2018-02-08T01:15:56.480Z,30.30
2018-02-08T01:16:56.426Z,29.70
2018-02-08T01:17:56.411Z,31.30
2018-02-08T01:18:56.363Z,30.60
2018-02-08T01:19:56.331Z,28.80
2018-02-08T01:20:56.297Z,29.40
2018-02-08T01:21:56.302Z,31.50
2018-02-08T01:22:56.256Z,30.60
2018-02-08T01:23:56.197Z,31.40
2018-02-08T01:24:56.168Z,31.40
2018-02-08T01:25:56.138Z,31.10
2018-02-08T01:26:56.116Z,31.40
2018-02-08T01:27:56.091Z,30.10
2018-02-08T01:28:56.052Z,31.90
2018-02-08T01:29:56.028Z,29.90
2018-02-08T01:30:55.986Z,30.00
2018-02-08T01:31:55.944Z,29.70
2018-02-08T01:32:55.915Z,30.30
2018-02-08T01:33:55.879Z,30.20
2018-02-08T01:34:55.862Z,29.80
2018-02-08T01:35:55.818Z,29.80
2018-02-08T01:36:55.849Z,29.10
2018-02-08T01:37:57.312Z,30.50
2018-02-08T01:38:55.727Z,31.00
2018-02-08T01:39:55.688Z,30.70
2018-02-08T01:40:55.659Z,30.50
2018-02-08T01:41:55.636Z,31.10
2018-02-08T01:42:57.328Z,31.70
2018-02-08T01:43:55.610Z,32.70
2018-02-08T01:44:55.526Z,31.20
2018-02-08T01:45:55.500Z,31.60
2018-02-08T01:46:57.325Z,31.40
2018-02-08T01:47:55.437Z,30.90
2018-02-08T01:48:55.406Z,32.30
2018-02-08T01:49:55.371Z,32.70
2018-02-08T01:50:55.342Z,33.70
2018-02-08T01:51:55.308Z,31.10
2018-02-08T01:52:55.277Z,33.20
2018-02-08T01:53:55.245Z,31.50
2018-02-08T01:54:55.212Z,33.80
2018-02-08T01:55:55.181Z,35.60
2018-02-08T01:56:55.147Z,34.30
2018-02-08T01:57:55.116Z,34.70
2018-02-08T01:58:55.084Z,33.50
2018-02-08T01:59:55.053Z,32.90
2018-02-08T02:00:55.020Z,34.10
2018-02-08T02:01:54.988Z,31.90
2018-02-08T02:02:54.957Z,32.60
2018-02-08T02:03:54.923Z,31.50
2018-02-08T02:04:54.900Z,32.90
2018-02-08T02:05:54.859Z,31.10
2018-02-08T02:06:54.828Z,32.80
2018-02-08T02:07:54.795Z,32.50
2018-02-08T02:08:54.763Z,34.80
2018-02-08T02:09:54.731Z,33.80
2018-02-08T02:10:54.699Z,33.30
2018-02-08T02:11:54.669Z,32.50
2018-02-08T02:12:54.636Z,33.90
2018-02-08T02:13:54.603Z,32.60
2018-02-08T02:14:54.572Z,30.00
2018-02-08T02:15:54.538Z,31.10
2018-02-08T02:16:54.507Z,32.00
2018-02-08T02:17:54.474Z,32.20
2018-02-08T02:18:54.443Z,32.30
2018-02-08T02:19:54.411Z,33.80
2018-02-08T02:20:54.379Z,32.50
2018-02-08T02:21:54.347Z,31.60
2018-02-08T02:22:54.323Z,33.20
2018-02-08T02:23:54.291Z,32.50
2018-02-08T02:24:54.250Z,32.60
2018-02-08T02:25:54.213Z,31.40
2018-02-08T02:26:54.192Z,31.90
2018-02-08T02:27:54.146Z,30.60
2018-02-08T02:28:54.122Z,31.40
2018-02-08T02:29:54.088Z,32.20
2018-02-08T02:30:54.055Z,32.10
2018-02-08T02:31:54.028Z,31.70
2018-02-08T02:32:54.007Z,33.30
2018-02-08T02:33:53.964Z,31.00
2018-02-08T02:34:53.930Z,32.10
2018-02-08T02:35:53.903Z,33.20
2018-02-08T02:36:53.878Z,31.50
2018-02-08T02:37:53.840Z,33.00
2018-02-08T02:38:53.800Z,32.60
2018-02-08T02:39:53.768Z,31.30
2018-02-08T02:40:53.735Z,32.50
2018-02-08T02:41:53.700Z,31.40
2018-02-08T02:42:53.677Z,29.40
2018-02-08T02:50:40.940Z,32.50
2018-02-08T02:51:05.800Z,30.40
2018-02-08T02:52:05.770Z,33.70
2018-02-08T02:53:05.742Z,31.30
2018-02-08T02:54:05.709Z,35.00
2018-02-08T02:55:05.673Z,31.50
2018-02-08T02:56:05.643Z,33.20
2018-02-08T02:57:05.608Z,32.50
2018-02-08T02:58:05.586Z,31.60
2018-02-08T02:59:05.546Z,30.60
2018-02-08T03:00:05.519Z,30.70
2018-02-08T03:01:05.486Z,30.20
2018-02-08T03:02:05.449Z,30.50
2018-02-08T03:03:05.420Z,30.10
2018-02-08T03:04:05.384Z,30.70
2018-02-08T03:05:05.356Z,30.10
2018-02-08T03:06:05.322Z,30.50
2018-02-08T03:07:05.287Z,31.00
2018-02-08T03:08:05.259Z,32.50
2018-02-08T03:09:05.226Z,31.60
2018-02-08T03:10:05.199Z,32.50
2018-02-08T03:11:05.165Z,32.80
2018-02-08T03:12:05.131Z,31.10
2018-02-08T03:13:05.098Z,30.90
2018-02-08T03:14:05.065Z,29.90
2018-02-08T03:15:05.044Z,30.80
2018-02-08T03:25:25.929Z,32.60
2018-02-08T03:26:23.334Z,34.10
2018-02-08T03:27:23.302Z,33.60
2018-02-08T03:28:23.334Z,35.20
2018-02-08T03:29:23.265Z,36.60
2018-02-08T03:30:23.217Z,32.30
2018-02-08T03:31:23.196Z,33.60
2018-02-08T03:32:23.144Z,32.10
2018-02-08T03:33:23.111Z,31.60
2018-02-08T03:34:23.078Z,33.50
2018-02-08T03:35:23.136Z,32.60
2018-02-08T03:36:23.076Z,33.20
2018-02-08T03:37:23.005Z,31.40
2018-02-08T03:38:22.958Z,31.60
2018-02-08T03:39:22.973Z,33.10
2018-02-08T03:40:22.945Z,34.00
2018-02-08T03:41:22.924Z,33.50
2018-02-08T03:42:22.815Z,35.70
2018-02-08T03:43:23.094Z,35.30
2018-02-08T03:44:22.763Z,35.00
2018-02-08T03:45:22.990Z,34.40
2018-02-08T03:46:22.716Z,36.10
2018-02-08T03:47:22.684Z,36.60
2018-02-08T03:48:22.691Z,37.50
2018-02-08T03:49:22.594Z,37.80
2018-02-08T03:50:22.672Z,36.80
2018-02-08T03:51:22.689Z,35.50
2018-02-08T03:52:22.512Z,34.70
2018-02-08T03:53:22.511Z,35.90
2018-02-08T03:54:22.449Z,34.50
2018-02-08T03:55:22.397Z,35.90
2018-02-08T03:56:22.396Z,38.10
2018-02-08T03:57:22.331Z,35.10
2018-02-08T03:58:22.363Z,35.90
2018-02-08T03:59:22.290Z,38.10
2018-02-08T04:00:22.306Z,39.40
2018-02-08T04:01:22.259Z,36.90
2018-02-08T04:02:22.182Z,37.40
2018-02-08T04:03:22.336Z,38.60
2018-02-08T04:04:22.150Z,38.20
2018-02-08T04:05:22.085Z,36.30
2018-02-08T04:06:22.131Z,35.20
2018-02-08T04:07:22.008Z,36.90
2018-02-08T04:08:21.979Z,38.10
2018-02-08T04:09:21.970Z,36.40
2018-02-08T04:10:21.913Z,37.70
2018-02-08T04:11:21.948Z,37.20
2018-02-08T04:12:21.853Z,37.80
2018-02-08T04:13:21.846Z,38.10
2018-02-08T04:14:21.780Z,38.80
2018-02-08T04:15:21.753Z,38.80
2018-02-08T04:16:21.723Z,38.10
2018-02-08T04:17:21.732Z,38.30
2018-02-08T04:18:21.704Z,38.10
2018-02-08T04:19:21.665Z,37.30
2018-02-08T04:20:21.587Z,37.10
2018-02-08T04:21:21.619Z,37.90
2018-02-08T04:22:21.583Z,38.10
2018-02-08T04:23:21.583Z,37.40
2018-02-08T04:24:21.503Z,36.10
2018-02-08T04:25:21.431Z,34.70
2018-02-08T04:26:21.403Z,36.30
2018-02-08T04:27:21.417Z,36.50
2018-02-08T04:28:21.385Z,32.50
2018-02-08T04:29:21.333Z,35.80
2018-02-08T04:30:21.302Z,33.40
2018-02-08T04:31:21.253Z,34.90
2018-02-08T04:32:21.219Z,34.10
2018-02-08T04:33:21.220Z,33.90
2018-02-08T04:34:21.146Z,35.40
2018-02-08T04:35:21.232Z,35.90
2018-02-08T04:36:21.066Z,34.60
2018-02-08T04:37:21.331Z,33.40
2018-02-08T04:38:21.068Z,34.30
2018-02-08T04:39:20.969Z,37.40
2018-02-08T04:40:20.973Z,36.20
2018-02-08T04:41:20.999Z,35.00
2018-02-08T04:42:20.918Z,35.40
2018-02-08T04:43:20.853Z,35.40
2018-02-08T04:44:20.807Z,36.70
2018-02-08T04:45:20.834Z,37.80
2018-02-08T04:46:20.794Z,39.40
2018-02-08T04:47:20.732Z,42.50
2018-02-08T04:48:20.788Z,41.20
2018-02-08T04:49:20.658Z,43.80
2018-02-08T04:50:20.613Z,44.20
2018-02-08T04:51:20.595Z,42.70
2018-02-08T04:52:20.631Z,43.70
2018-02-08T04:53:20.533Z,41.80
2018-02-08T04:54:20.520Z,39.20
2018-02-08T04:55:20.468Z,38.80
2018-02-08T04:56:20.433Z,35.60
2018-02-08T04:57:20.422Z,33.90
2018-02-08T04:58:20.382Z,35.30
2018-02-08T04:59:20.340Z,33.20
2018-02-08T05:00:20.324Z,31.70
2018-02-08T05:01:20.302Z,33.90
2018-02-08T05:02:20.221Z,32.90
2018-02-08T05:03:20.199Z,33.60
2018-02-08T05:04:20.172Z,32.70
2018-02-08T05:05:20.162Z,36.30
2018-02-08T05:06:20.120Z,32.70
2018-02-08T05:07:20.108Z,37.00
2018-02-08T05:08:20.042Z,36.40
2018-02-08T05:09:20.008Z,36.70
2018-02-08T05:10:19.969Z,35.10
2018-02-08T05:11:19.943Z,35.90
2018-02-08T05:12:19.915Z,32.00
2018-02-08T05:13:19.865Z,33.20
2018-02-08T05:14:19.864Z,31.40
2018-02-08T05:15:19.813Z,33.40
2018-02-08T05:16:19.812Z,33.90
2018-02-08T05:17:19.741Z,32.70
2018-02-08T05:18:19.721Z,33.40
2018-02-08T05:19:19.716Z,33.70
2018-02-08T05:20:19.660Z,35.60
2018-02-08T05:21:19.682Z,35.60
2018-02-08T05:22:19.585Z,35.60
2018-02-08T05:23:19.555Z,35.30
2018-02-08T05:24:19.634Z,34.80
2018-02-08T05:25:19.488Z,35.00
2018-02-08T05:26:19.515Z,34.80
2018-02-08T05:27:19.410Z,34.00
2018-02-08T05:28:19.378Z,33.00
2018-02-08T05:29:19.346Z,36.30
2018-02-08T05:30:19.325Z,35.90
2018-02-08T05:31:19.282Z,35.00
2018-02-08T05:32:19.250Z,39.60
2018-02-08T05:33:19.229Z,37.20
2018-02-08T05:34:19.194Z,36.20
2018-02-08T05:35:19.149Z,37.70
2018-02-08T05:36:19.118Z,38.90
2018-02-08T05:37:19.084Z,38.40
2018-02-08T05:38:19.064Z,35.90
2018-02-08T05:39:19.024Z,38.00
2018-02-08T05:40:19.012Z,37.40
2018-02-08T05:41:18.957Z,39.30
2018-02-08T05:42:18.924Z,37.20
2018-02-08T05:43:18.891Z,37.70
2018-02-08T05:44:18.865Z,36.40
2018-02-08T05:45:18.886Z,36.40
2018-02-08T05:46:18.792Z,37.10
2018-02-08T05:47:18.760Z,35.50
2018-02-08T05:48:18.740Z,36.60
2018-02-08T05:49:18.706Z,32.80
2018-02-08T05:50:18.659Z,36.90
2018-02-08T05:51:18.647Z,35.30
2018-02-08T05:52:18.607Z,38.40
2018-02-08T05:53:18.574Z,36.80
2018-02-08T05:54:18.531Z,36.70
2018-02-08T05:55:18.508Z,34.90
2018-02-08T05:56:18.467Z,37.80
2018-02-08T05:57:18.445Z,34.90
2018-02-08T05:58:18.398Z,35.40
2018-02-08T05:59:18.378Z,34.10
2018-02-08T06:00:18.338Z,33.70
2018-02-08T06:01:18.313Z,33.40
2018-02-08T06:02:18.270Z,33.10
2018-02-08T06:03:18.248Z,32.10
2018-02-08T06:04:18.204Z,33.20
2018-02-08T06:05:18.187Z,32.90
2018-02-08T06:06:18.136Z,32.50
2018-02-08T06:07:18.116Z,31.50
2018-02-08T06:08:18.084Z,31.90
2018-02-08T06:09:18.040Z,35.00
2018-02-08T06:10:18.007Z,34.00
2018-02-08T06:11:17.973Z,33.60
2018-02-08T06:12:17.953Z,35.00
2018-02-08T06:13:17.921Z,37.10
2018-02-08T06:14:17.875Z,36.30
2018-02-08T06:15:17.845Z,36.40
2018-02-08T06:16:17.826Z,37.30
2018-02-08T06:17:17.778Z,35.30
2018-02-08T06:18:17.746Z,35.20
2018-02-08T06:19:17.724Z,35.40
2018-02-08T06:20:17.680Z,36.00
2018-02-08T06:21:17.660Z,36.30
2018-02-08T06:22:17.614Z,35.80
2018-02-08T06:23:17.583Z,34.20
2018-02-08T06:24:17.559Z,35.00
2018-02-08T06:25:17.529Z,36.50
2018-02-08T06:26:17.495Z,37.50
2018-02-08T06:27:17.452Z,35.10
2018-02-08T06:28:17.417Z,36.60
2018-02-08T06:29:17.972Z,34.80
2018-02-08T06:30:17.364Z,35.90
2018-02-08T06:31:17.321Z,34.30
2018-02-08T06:32:17.287Z,36.20
2018-02-08T06:33:17.257Z,33.60
2018-02-08T06:34:17.222Z,36.00
2018-02-08T06:35:17.188Z,36.90
2018-02-08T06:36:17.167Z,37.00
2018-02-08T06:37:17.129Z,37.40
2018-02-08T06:38:17.102Z,36.90
2018-02-08T06:39:17.059Z,36.30
2018-02-08T06:40:17.025Z,33.20
2018-02-08T06:41:16.992Z,34.00
2018-02-08T06:42:16.960Z,33.70
2018-02-08T06:43:16.926Z,35.90
2018-02-08T06:44:16.894Z,32.80
2018-02-08T06:45:16.875Z,33.70
2018-02-08T06:46:16.841Z,35.10
2018-02-08T06:47:16.808Z,34.10
2018-02-08T06:48:16.776Z,35.10
2018-02-08T06:49:16.731Z,37.40
2018-02-08T06:50:16.710Z,35.80
2018-02-08T06:51:16.678Z,36.60
2018-02-08T06:52:16.645Z,34.70
2018-02-08T06:53:16.613Z,34.80
2018-02-08T06:54:16.579Z,34.80
2018-02-08T06:55:16.534Z,32.70
2018-02-08T06:56:16.514Z,31.70
2018-02-08T06:57:16.471Z,36.60
2018-02-08T06:58:16.495Z,34.50
2018-02-08T06:59:16.406Z,33.90
2018-02-08T07:00:16.370Z,35.10
2018-02-08T07:01:16.339Z,37.20
2018-02-08T07:02:16.306Z,34.40
2018-02-08T07:03:16.285Z,35.20
2018-02-08T07:04:16.242Z,35.90
2018-02-08T07:05:16.207Z,37.30
2018-02-08T07:06:16.174Z,37.30
2018-02-08T07:07:16.158Z,37.80
2018-02-08T07:08:16.110Z,38.50
2018-02-08T07:09:16.079Z,38.30
2018-02-08T07:10:16.045Z,35.60
2018-02-08T07:11:16.026Z,39.00
2018-02-08T07:12:15.983Z,37.80
2018-02-08T07:13:15.960Z,36.30
2018-02-08T07:14:15.916Z,38.20
2018-02-08T07:15:15.883Z,35.50
2018-02-08T07:16:15.860Z,34.40
2018-02-08T07:17:15.830Z,33.30
2018-02-08T07:18:15.794Z,32.10
2018-02-08T07:19:15.751Z,32.50
2018-02-08T07:20:15.720Z,32.40
2018-02-08T07:21:15.686Z,35.40
2018-02-08T07:22:15.654Z,33.70
2018-02-08T07:23:15.621Z,33.70
2018-02-08T07:24:15.601Z,35.30
2018-02-08T07:25:15.557Z,32.70
2018-02-08T07:26:15.522Z,32.90
2018-02-08T07:27:15.492Z,34.20
2018-02-08T07:28:15.472Z,34.20
2018-02-08T07:29:15.448Z,33.10
2018-02-08T07:30:15.395Z,34.40
2018-02-08T07:31:15.363Z,35.60
2018-02-08T07:32:15.331Z,32.30
2018-02-08T07:33:15.298Z,34.60
2018-02-08T07:34:15.277Z,33.10
2018-02-08T07:35:15.232Z,31.20
2018-02-08T07:36:15.218Z,32.30
2018-02-08T07:37:15.168Z,30.30
2018-02-08T07:38:15.148Z,30.70
2018-02-08T07:39:15.104Z,32.20
2018-02-08T07:40:15.074Z,33.70
2018-02-08T07:41:15.040Z,33.00
2018-02-08T07:42:15.020Z,32.10
2018-02-08T07:43:14.976Z,33.10
2018-02-08T07:44:14.943Z,33.80
2018-02-08T07:45:14.911Z,31.90
2018-02-08T07:46:14.880Z,31.20
2018-02-08T07:47:14.854Z,32.10
2018-02-08T07:48:14.816Z,34.60
2018-02-08T07:49:14.782Z,34.10
2018-02-08T07:50:14.761Z,36.60
2018-02-08T07:51:14.730Z,33.60
2018-02-08T07:52:14.688Z,32.60
2018-02-08T07:53:14.653Z,34.20
2018-02-08T07:54:14.634Z,33.30
2018-02-08T07:55:14.590Z,33.10
2018-02-08T07:56:14.570Z,34.70
2018-02-08T07:57:14.539Z,35.10
2018-02-08T07:58:14.495Z,34.90
2018-02-08T07:59:14.474Z,37.10
2018-02-08T08:00:14.448Z,36.80
2018-02-08T08:01:14.400Z,35.70
2018-02-08T08:02:14.367Z,38.20
2018-02-08T08:03:14.335Z,37.60
2018-02-08T08:04:14.304Z,40.30
2018-02-08T08:05:14.272Z,38.20
2018-02-08T08:06:14.241Z,39.50
2018-02-08T08:07:14.222Z,41.20
2018-02-08T08:08:14.177Z,39.50
2018-02-08T08:09:14.148Z,39.90
2018-02-08T08:10:14.126Z,39.40
2018-02-08T08:11:14.082Z,38.20
2018-02-08T08:12:14.053Z,36.90
2018-02-08T08:13:14.035Z,36.00
2018-02-08T08:14:13.989Z,37.30
2018-02-08T08:15:13.970Z,34.80
2018-02-08T08:16:13.926Z,37.30
2018-02-08T08:17:13.894Z,36.80
2018-02-08T08:18:13.865Z,35.60
2018-02-08T08:19:13.832Z,35.30
2018-02-08T08:20:13.816Z,37.70
2018-02-08T08:21:13.773Z,35.80
2018-02-08T08:22:13.740Z,34.30
2018-02-08T08:23:13.720Z,36.10
2018-02-08T08:24:13.688Z,35.40
2018-02-08T08:25:13.658Z,36.10
2018-02-08T08:26:13.613Z,35.00
2018-02-08T08:27:13.583Z,36.00
2018-02-08T08:28:13.554Z,33.90
2018-02-08T08:29:13.523Z,35.70
2018-02-08T08:30:13.503Z,35.20
2018-02-08T08:31:13.473Z,35.90
2018-02-08T08:32:13.431Z,36.50
2018-02-08T08:33:13.411Z,37.40
2018-02-08T08:34:13.394Z,35.30
2018-02-08T08:35:13.337Z,36.00
2018-02-08T08:36:13.363Z,34.60
2018-02-08T08:37:13.291Z,36.10
2018-02-08T08:38:13.257Z,35.50
2018-02-08T08:39:13.228Z,33.40
2018-02-08T08:40:13.203Z,34.50
2018-02-08T08:41:13.168Z,34.10
2018-02-08T08:42:13.127Z,33.70
2018-02-08T08:43:13.097Z,34.00
2018-02-08T08:44:13.069Z,33.70
2018-02-08T08:45:13.036Z,33.60
2018-02-08T08:46:13.004Z,34.00
2018-02-08T08:47:12.988Z,34.90
2018-02-08T08:48:13.284Z,34.10
2018-02-08T08:49:12.929Z,33.20
2018-02-08T08:50:12.888Z,34.30
2018-02-08T08:51:12.870Z,34.60
2018-02-08T08:52:12.838Z,35.40
2018-02-08T08:53:12.812Z,34.30
2018-02-08T08:54:12.765Z,33.50
2018-02-08T08:55:12.748Z,34.00
2018-02-08T08:56:12.718Z,35.00
2018-02-08T08:57:12.686Z,35.10
2018-02-08T08:58:12.645Z,34.70
2018-02-08T08:59:12.630Z,35.20
2018-02-08T09:00:12.599Z,35.30
2018-02-08T09:01:12.556Z,37.50
2018-02-08T09:02:12.528Z,32.80
2018-02-08T09:03:12.498Z,34.50
2018-02-08T09:04:12.468Z,31.80
2018-02-08T09:05:12.451Z,33.30
2018-02-08T09:06:12.442Z,33.00
2018-02-08T09:07:12.380Z,33.60
2018-02-08T09:08:12.349Z,34.80
2018-02-08T09:09:12.331Z,33.90
2018-02-08T09:10:12.301Z,33.40
2018-02-08T09:11:12.272Z,32.50
2018-02-08T09:12:12.241Z,32.90
2018-02-08T09:13:12.212Z,32.40
2018-02-08T09:14:12.172Z,32.40
2018-02-08T09:15:12.152Z,32.00
2018-02-08T09:16:12.123Z,32.40
2018-02-08T09:17:12.098Z,32.60
2018-02-08T09:18:12.052Z,31.60
2018-02-08T09:19:12.021Z,32.20
2018-02-08T09:20:11.991Z,32.40
2018-02-08T09:21:11.963Z,32.60
2018-02-08T09:22:11.933Z,31.80
2018-02-08T09:23:11.918Z,31.60
2018-02-08T09:24:11.885Z,32.40
2018-02-08T09:25:11.843Z,32.00
2018-02-08T09:26:11.824Z,31.30
2018-02-08T09:27:11.802Z,32.60
2018-02-08T09:28:11.752Z,31.20
2018-02-08T09:29:11.723Z,31.10
2018-02-08T09:30:11.693Z,32.40
2018-02-08T09:31:11.675Z,32.30
2018-02-08T09:32:11.634Z,32.80
2018-02-08T09:33:11.606Z,32.60
2018-02-08T09:34:11.587Z,32.30
2018-02-08T09:35:11.547Z,32.80
2018-02-08T09:36:11.515Z,34.10
2018-02-08T09:37:11.487Z,33.00
2018-02-08T09:38:11.468Z,31.50
2018-02-08T09:39:11.426Z,31.90
2018-02-08T09:40:11.395Z,32.80
2018-02-08T09:41:11.366Z,32.90
2018-02-08T09:42:11.344Z,31.30
2018-02-08T09:43:11.307Z,31.10
2018-02-08T09:44:11.276Z,32.00
2018-02-08T09:45:11.247Z,31.90
2018-02-08T09:46:11.217Z,32.40
2018-02-08T09:47:11.199Z,32.70
2018-02-08T09:48:11.174Z,32.20
2018-02-08T09:49:11.131Z,32.90
2018-02-08T09:50:11.100Z,31.30
2018-02-08T09:51:11.082Z,31.90
2018-02-08T09:52:11.052Z,31.80
2018-02-08T09:53:11.013Z,31.20
2018-02-08T09:54:10.982Z,32.40
2018-02-08T09:55:10.963Z,31.10
2018-02-08T09:56:10.924Z,31.00
2018-02-08T09:57:10.895Z,27.90
2018-02-08T09:58:10.877Z,28.20
2018-02-08T09:59:10.849Z,27.90
2018-02-08T10:00:10.807Z,28.20
2018-02-08T10:01:10.781Z,29.80
2018-02-08T10:02:10.749Z,29.30
2018-02-08T10:03:10.735Z,27.80
2018-02-08T10:04:10.708Z,27.70
2018-02-08T10:05:10.668Z,26.50
2018-02-08T10:06:10.650Z,27.00
2018-02-08T10:07:10.612Z,26.60
2018-02-08T10:08:10.584Z,28.20
2018-02-08T10:09:10.569Z,27.60
2018-02-08T10:10:10.530Z,29.20
2018-02-08T10:11:10.502Z,28.90
2018-02-08T10:12:10.489Z,29.20
2018-02-08T10:13:10.449Z,27.90
2018-02-08T10:14:10.485Z,27.70
2018-02-08T10:15:10.397Z,27.20
2018-02-08T10:16:10.382Z,27.40
2018-02-08T10:17:10.345Z,27.70
2018-02-08T10:18:10.321Z,26.80
2018-02-08T10:19:10.305Z,28.60
2018-02-08T10:20:10.272Z,28.00
2018-02-08T10:21:10.254Z,28.30
2018-02-08T10:22:10.230Z,27.30
2018-02-08T10:23:10.191Z,27.40
2018-02-08T10:24:10.170Z,24.90
2018-02-08T10:25:10.144Z,24.30
2018-02-08T10:26:10.130Z,25.20
2018-02-08T10:27:10.098Z,26.40
2018-02-08T10:28:10.070Z,23.90
2018-02-08T10:29:10.046Z,24.60
2018-02-08T10:30:10.022Z,25.30
2018-02-08T10:31:10.005Z,25.40
2018-02-08T10:32:09.976Z,22.50
2018-02-08T10:33:09.950Z,24.60
2018-02-08T10:34:09.929Z,24.20
2018-02-08T10:35:09.905Z,24.80
2018-02-08T10:36:09.885Z,26.50
2018-02-08T10:37:09.860Z,25.30
2018-02-08T10:38:09.836Z,26.80
2018-02-08T10:39:09.826Z,26.00
2018-02-08T10:40:09.791Z,26.70
2018-02-08T10:41:09.769Z,24.90
2018-02-08T10:42:09.746Z,25.10
2018-02-08T10:43:09.722Z,25.10
2018-02-08T10:44:09.713Z,23.90
2018-02-08T10:45:09.678Z,23.20
2018-02-08T10:46:09.668Z,23.20
2018-02-08T10:47:09.636Z,23.30
2018-02-08T10:48:09.612Z,21.80
2018-02-08T10:49:09.593Z,21.60
2018-02-08T10:50:09.582Z,24.00
2018-02-08T10:51:09.560Z,21.70
2018-02-08T10:52:09.530Z,22.70
2018-02-08T10:53:09.508Z,23.00
2018-02-08T10:54:09.484Z,21.80
2018-02-08T10:55:09.472Z,22.20
2018-02-08T10:56:09.446Z,23.10
2018-02-08T10:57:09.527Z,21.30
2018-02-08T10:58:09.433Z,21.40
2018-02-08T10:59:09.394Z,21.40
2018-02-08T11:00:09.373Z,23.70
2018-02-08T11:01:09.344Z,23.40
2018-02-08T11:02:09.320Z,22.80
2018-02-08T11:03:09.302Z,23.00
2018-02-08T11:04:09.284Z,22.60
2018-02-08T11:05:09.274Z,23.10
2018-02-08T11:06:09.254Z,21.10
2018-02-08T11:07:09.222Z,21.90
2018-02-08T11:08:09.205Z,21.80
2018-02-08T11:09:09.197Z,22.50
2018-02-08T11:10:09.165Z,22.20
2018-02-08T11:11:09.147Z,22.50
2018-02-08T11:12:09.128Z,21.30
2018-02-08T11:13:09.110Z,22.80
2018-02-08T11:14:09.103Z,21.90
2018-02-08T11:15:09.072Z,22.00
2018-02-08T11:16:09.069Z,22.00
2018-02-08T11:17:09.034Z,21.90
2018-02-08T11:18:09.017Z,25.00
2018-02-08T11:19:09.008Z,24.50
2018-02-08T11:20:08.992Z,26.20
2018-02-08T11:21:08.961Z,27.60
2018-02-08T11:22:08.956Z,23.10
2018-02-08T11:23:08.938Z,22.70
2018-02-08T11:24:08.913Z,21.80
2018-02-08T11:25:08.903Z,22.70
2018-02-08T11:26:08.885Z,22.30
2018-02-08T11:27:08.859Z,24.10
2018-02-08T11:28:08.840Z,22.10
2018-02-08T11:29:08.833Z,22.40
2018-02-08T11:30:08.846Z,22.00
2018-02-08T11:31:08.798Z,23.40
2018-02-08T11:32:08.781Z,22.50
2018-02-08T11:33:08.763Z,22.70
2018-02-08T11:34:08.747Z,21.50
2018-02-08T11:35:08.719Z,22.70
2018-02-08T11:36:08.701Z,22.90
2018-02-08T11:37:08.685Z,23.60
2018-02-08T11:38:08.667Z,22.60
2018-02-08T11:39:08.650Z,23.90
2018-02-08T11:40:08.645Z,23.90
2018-02-08T11:41:08.628Z,24.80
2018-02-08T11:42:08.621Z,29.10
2018-02-08T11:43:08.595Z,26.50
2018-02-08T11:44:08.566Z,24.30
2018-02-08T11:45:08.563Z,22.80
2018-02-08T11:46:08.544Z,22.30
2018-02-08T11:47:08.528Z,21.10
2018-02-08T11:48:08.511Z,22.40
2018-02-08T11:49:08.481Z,20.20
2018-02-08T11:50:08.466Z,21.20
2018-02-08T11:51:08.461Z,23.40
2018-02-08T11:52:08.442Z,22.90
2018-02-08T11:53:08.422Z,23.00
2018-02-08T11:54:08.396Z,21.40
2018-02-08T11:55:08.383Z,22.80
2018-02-08T11:56:08.376Z,21.10
2018-02-08T11:57:08.359Z,21.80
2018-02-08T11:58:08.331Z,20.60
2018-02-08T11:59:08.314Z,21.60
2018-02-08T12:00:08.297Z,21.20
2018-02-08T12:01:08.281Z,20.50
2018-02-08T12:02:08.274Z,21.80
2018-02-08T12:03:08.247Z,21.20
2018-02-08T12:04:08.233Z,21.00
2018-02-08T12:05:08.213Z,21.10
2018-02-08T12:06:08.215Z,19.80
2018-02-08T12:07:08.182Z,20.10
2018-02-08T12:08:08.177Z,21.40
2018-02-08T12:09:08.149Z,21.60
2018-02-08T12:10:08.144Z,22.30
2018-02-08T12:11:08.129Z,21.80
2018-02-08T12:12:08.134Z,20.90
2018-02-08T12:13:08.086Z,22.00
2018-02-08T12:14:08.072Z,21.70
2018-02-08T12:15:08.057Z,23.20
2018-02-08T12:16:08.053Z,22.90
2018-02-08T12:17:08.029Z,22.40
2018-02-08T12:18:08.021Z,22.20
2018-02-08T12:19:07.995Z,21.00
2018-02-08T12:20:07.980Z,21.60
2018-02-08T12:21:07.969Z,22.20
2018-02-08T12:22:07.960Z,23.40
2018-02-08T12:23:07.938Z,22.10
2018-02-08T12:24:07.932Z,21.70
2018-02-08T12:25:07.918Z,21.60
2018-02-08T12:26:07.902Z,21.10
2018-02-08T12:27:07.874Z,20.80
2018-02-08T12:28:07.873Z,21.20
2018-02-08T12:29:07.859Z,21.80
2018-02-08T12:30:07.833Z,21.00
2018-02-08T12:31:07.854Z,21.70
2018-02-08T12:32:07.831Z,20.50
2018-02-08T12:33:07.792Z,21.80
2018-02-08T12:34:07.787Z,20.80
2018-02-08T12:35:07.784Z,20.40
2018-02-08T12:36:07.803Z,20.70
2018-02-08T12:37:07.769Z,19.30
2018-02-08T12:38:07.729Z,20.30
2018-02-08T12:39:07.716Z,20.30
2018-02-08T12:40:07.708Z,18.60
2018-02-08T12:41:07.678Z,18.10
2018-02-08T12:42:07.722Z,18.70
2018-02-08T12:43:07.658Z,18.30
2018-02-08T12:44:07.641Z,19.10
2018-02-08T12:45:07.658Z,18.70
2018-02-08T12:46:07.601Z,18.90
2018-02-08T12:47:07.607Z,18.50
2018-02-08T12:48:07.576Z,19.60
2018-02-08T12:49:07.559Z,18.50
2018-02-08T12:50:07.525Z,17.60
2018-02-08T12:51:07.544Z,20.20
2018-02-08T12:52:07.517Z,20.50
2018-02-08T12:53:07.542Z,19.40
2018-02-08T12:54:07.594Z,19.70
2018-02-08T12:55:07.571Z,19.80
2018-02-08T12:56:07.503Z,19.80
2018-02-08T12:57:07.605Z,20.80
2018-02-08T12:58:07.405Z,21.10
2018-02-08T12:59:07.419Z,21.40
2018-02-08T13:00:07.420Z,20.40
2018-02-08T13:01:07.346Z,20.90
2018-02-08T13:02:07.328Z,20.70
2018-02-08T13:03:07.383Z,20.60
2018-02-08T13:04:07.301Z,20.80
2018-02-08T13:05:07.311Z,21.50
2018-02-08T13:06:07.290Z,20.30
2018-02-08T13:07:07.258Z,20.60
2018-02-08T13:08:07.233Z,20.80